Ute, Iowa
Current Conditions -  °F | °C
As of 10:35 AM on Sunday 21 Dec 2014 (Local Time) from KDNS Reporting Station
Haze Haze  
Wind Chill: 28°   Ceiling: 400
Heat Index: 37°   Visibility: 2mi
Dew Point: 37°   Wind: 17mph
Humidity: 100%   Direction: 200°SSW
Pressure: 29.82"   Gusts: 25mph
Location:  42.05°N, 95.71°W
Report Text: KDNS 211635Z AUTO 20015G22KT 2SM BR OVC004 03/03 A2982 RMK AO2
Loading
Personal Weather Stations






























Interactive Weather Map New forecast layout! Learn more

10-Day Weather Forecast

Advertisements
Track Severe Weather on mobile